createdAt,value
2018-12-17T18:11:52.651Z,1018.89
2018-12-17T18:12:52.625Z,1018.90
2018-12-17T18:13:52.617Z,1018.92
2018-12-17T18:14:52.604Z,1018.96
2018-12-17T18:15:52.592Z,1018.99
2018-12-17T18:16:52.582Z,1019.03
2018-12-17T18:17:52.572Z,1018.98
2018-12-17T18:18:52.564Z,1019.00
2018-12-17T18:19:52.567Z,1018.96
2018-12-17T18:20:52.536Z,1019.01
2018-12-17T18:21:52.528Z,1019.03
2018-12-17T18:22:52.515Z,1019.09
2018-12-17T18:23:52.522Z,1019.06
2018-12-17T18:24:52.497Z,1019.10
2018-12-17T18:25:53.203Z,1019.11
2018-12-17T18:26:52.474Z,1019.13
2018-12-17T18:27:52.783Z,1019.16
2018-12-17T18:28:52.902Z,1019.17
2018-12-17T18:29:52.439Z,1019.14
2018-12-17T18:30:52.461Z,1019.14
2018-12-17T18:31:52.417Z,1019.15
2018-12-17T18:32:52.414Z,1019.14
2018-12-17T18:33:52.397Z,1019.15
2018-12-17T18:34:52.400Z,1019.16
2018-12-17T18:35:52.371Z,1019.21
2018-12-17T18:36:52.372Z,1019.20
2018-12-17T18:37:52.352Z,1019.25
2018-12-17T18:38:52.342Z,1019.23
2018-12-17T18:39:52.334Z,1019.22
2018-12-17T18:40:52.320Z,1019.22
2018-12-17T18:41:52.309Z,1019.18
2018-12-17T18:42:52.366Z,1019.22
2018-12-17T18:43:52.297Z,1019.23
2018-12-17T18:44:52.284Z,1019.19
2018-12-17T18:45:52.265Z,1019.19
2018-12-17T18:46:52.255Z,1019.19
2018-12-17T18:47:52.248Z,1019.17
2018-12-17T18:48:52.641Z,1019.18
2018-12-17T18:49:52.223Z,1019.16
2018-12-17T18:50:52.217Z,1019.15
2018-12-17T18:51:52.207Z,1019.15
2018-12-17T18:52:52.195Z,1019.18
2018-12-17T18:53:52.180Z,1019.19
2018-12-17T18:54:52.188Z,1019.22
2018-12-17T18:55:52.155Z,1019.27
2018-12-17T18:56:52.149Z,1019.31
2018-12-17T18:57:52.134Z,1019.31
2018-12-17T18:58:52.128Z,1019.31
2018-12-17T18:59:52.114Z,1019.32
2018-12-17T19:00:52.103Z,1019.35
2018-12-17T19:01:52.105Z,1019.31
2018-12-17T19:02:52.084Z,1019.28
2018-12-17T19:03:52.071Z,1019.29
2018-12-17T19:04:52.074Z,1019.29
2018-12-17T19:05:52.053Z,1019.31
2018-12-17T19:06:52.046Z,1019.35
2018-12-17T19:07:52.112Z,1019.31
2018-12-17T19:08:52.015Z,1019.33
2018-12-17T19:09:52.003Z,1019.32
2018-12-17T19:10:52.244Z,1019.32
2018-12-17T19:11:51.987Z,1019.32
2018-12-17T19:12:51.975Z,1019.33
2018-12-17T19:13:51.963Z,1019.34
2018-12-17T19:14:51.947Z,1019.34
2018-12-17T19:15:51.938Z,1019.37
2018-12-17T19:16:51.993Z,1019.34
2018-12-17T19:17:51.918Z,1019.37
2018-12-17T19:18:51.902Z,1019.38
2018-12-17T19:19:51.888Z,1019.42
2018-12-17T19:20:51.877Z,1019.39
2018-12-17T19:21:51.874Z,1019.41
2018-12-17T19:22:51.866Z,1019.43
2018-12-17T19:23:51.844Z,1019.45
2018-12-17T19:24:51.933Z,1019.42
2018-12-17T19:25:51.955Z,1019.47
2018-12-17T19:26:51.814Z,1019.49
2018-12-17T19:27:51.799Z,1019.53
2018-12-17T19:28:51.791Z,1019.53
2018-12-17T19:29:51.788Z,1019.52
2018-12-17T19:30:51.782Z,1019.53
2018-12-17T19:31:51.759Z,1019.50
2018-12-17T19:32:51.743Z,1019.48
2018-12-17T19:33:51.784Z,1019.45
2018-12-17T19:34:51.729Z,1019.44
2018-12-17T19:35:51.716Z,1019.47
2018-12-17T19:36:51.699Z,1019.49
2018-12-17T19:37:51.692Z,1019.47
2018-12-17T19:38:51.684Z,1019.52
2018-12-17T19:39:51.669Z,1019.54
2018-12-17T19:40:51.661Z,1019.55
2018-12-17T19:41:51.649Z,1019.54
2018-12-17T19:42:56.256Z,1019.56
2018-12-17T19:43:51.623Z,1019.58
2018-12-17T19:44:51.611Z,1019.54
2018-12-17T19:45:51.600Z,1019.66
2018-12-17T19:46:51.595Z,1019.61
2018-12-17T19:47:51.588Z,1019.56
2018-12-17T19:48:51.565Z,1019.57
2018-12-17T19:49:51.556Z,1019.58
2018-12-17T19:50:51.565Z,1019.59
2018-12-17T19:51:51.536Z,1019.58
2018-12-17T19:52:51.535Z,1019.56
2018-12-17T19:53:51.520Z,1019.54
2018-12-17T19:54:51.503Z,1019.54
2018-12-17T19:55:51.551Z,1019.53
2018-12-17T19:56:51.495Z,1019.51
2018-12-17T19:57:51.471Z,1019.51
2018-12-17T19:58:51.464Z,1019.51
2018-12-17T19:59:51.450Z,1019.51
2018-12-17T20:00:51.448Z,1019.52
2018-12-17T20:01:51.434Z,1019.53
2018-12-17T20:02:51.418Z,1019.52
2018-12-17T20:03:51.403Z,1019.54
2018-12-17T20:04:51.399Z,1019.51
2018-12-17T20:05:51.380Z,1019.51
2018-12-17T20:06:51.371Z,1019.55
2018-12-17T20:07:51.364Z,1019.58
2018-12-17T20:08:51.352Z,1019.65
2018-12-17T20:09:51.337Z,1019.56
2018-12-17T20:10:51.335Z,1019.62
2018-12-17T20:11:51.328Z,1019.64
2018-12-17T20:12:51.303Z,1019.64
2018-12-17T20:13:51.295Z,1019.63
2018-12-17T21:12:33.625Z,1019.85
2018-12-17T21:13:33.087Z,1019.83
2018-12-17T21:14:33.020Z,1019.85
2018-12-17T21:15:33.005Z,1019.86
2018-12-17T21:16:33.013Z,1019.87
2018-12-17T21:17:32.988Z,1019.95
2018-12-17T21:18:32.992Z,1019.93
2018-12-17T21:19:32.961Z,1019.91
2018-12-17T21:20:32.957Z,1019.91
2018-12-17T21:21:32.945Z,1019.90
2018-12-17T21:22:32.955Z,1019.89
2018-12-17T21:23:33.102Z,1019.90
2018-12-17T21:24:33.000Z,1019.85
2018-12-17T21:25:32.896Z,1019.87
2018-12-17T21:26:32.886Z,1019.89
2018-12-17T21:27:32.876Z,1019.83
2018-12-17T21:28:32.862Z,1019.84
2018-12-17T21:29:32.860Z,1019.80
2018-12-17T21:30:32.850Z,1019.85
2018-12-17T21:31:32.834Z,1019.80
2018-12-17T21:32:32.822Z,1019.77
2018-12-17T21:33:32.811Z,1019.80
2018-12-17T21:34:33.174Z,1019.78
2018-12-17T21:35:32.787Z,1019.80
2018-12-17T21:36:32.778Z,1019.78
2018-12-17T21:37:32.776Z,1019.80
2018-12-17T21:38:32.758Z,1019.74
2018-12-17T21:39:32.761Z,1019.78
2018-12-17T21:40:32.734Z,1019.77
2018-12-17T21:41:32.723Z,1019.76
2018-12-17T21:42:32.714Z,1019.82
2018-12-17T21:43:36.067Z,1019.81
2018-12-17T21:44:32.689Z,1019.81
2018-12-17T21:45:32.679Z,1019.82
2018-12-17T21:46:34.019Z,1019.85
2018-12-17T21:47:32.666Z,1019.88
2018-12-17T21:48:32.652Z,1019.87
2018-12-17T21:49:32.642Z,1019.87
2018-12-17T21:50:32.627Z,1019.85
2018-12-17T21:51:32.614Z,1019.86
2018-12-17T21:52:32.604Z,1019.90
2018-12-17T21:53:32.595Z,1019.91
2018-12-17T21:54:32.593Z,1019.91
2018-12-17T21:55:32.571Z,1019.94
2018-12-17T21:56:32.570Z,1019.91
2018-12-17T21:57:32.673Z,1019.93
2018-12-17T21:58:32.731Z,1019.99
2018-12-17T21:59:32.528Z,1019.98
2018-12-17T22:00:33.683Z,1020.01
2018-12-17T22:01:32.611Z,1020.03
2018-12-17T22:02:32.498Z,1020.05
2018-12-17T22:03:32.486Z,1020.02
2018-12-17T22:04:32.475Z,1020.07
2018-12-17T22:05:32.463Z,1020.07
2018-12-17T22:06:32.452Z,1020.08
2018-12-17T22:07:32.443Z,1020.06
2018-12-17T22:08:32.431Z,1020.08
2018-12-17T22:09:32.423Z,1020.14
2018-12-17T22:10:32.423Z,1020.10
2018-12-17T22:11:32.407Z,1020.13
2018-12-17T22:12:32.423Z,1020.13
2018-12-17T22:13:32.574Z,1020.14
2018-12-17T22:14:32.363Z,1020.16
2018-12-17T22:15:32.354Z,1020.15
2018-12-17T22:16:32.341Z,1020.16
2018-12-17T22:17:32.342Z,1020.15
2018-12-17T22:18:32.322Z,1020.21
2018-12-17T22:19:32.311Z,1020.27
2018-12-17T22:20:32.304Z,1020.24
2018-12-17T22:21:32.290Z,1020.25
2018-12-17T22:22:32.283Z,1020.27
2018-12-17T22:23:32.265Z,1020.25
2018-12-17T22:24:32.255Z,1020.32
2018-12-17T22:25:32.305Z,1020.30
2018-12-17T22:26:32.328Z,1020.34
2018-12-17T22:27:32.312Z,1020.36
2018-12-17T22:28:32.256Z,1020.35
2018-12-17T22:29:32.198Z,1020.34
2018-12-17T22:30:32.190Z,1020.34
2018-12-17T22:31:32.185Z,1020.35
2018-12-17T22:32:32.174Z,1020.35
2018-12-17T22:33:32.155Z,1020.34
2018-12-17T22:34:32.151Z,1020.28
2018-12-17T22:35:32.132Z,1020.26
2018-12-17T22:36:32.210Z,1020.23
2018-12-17T22:37:32.113Z,1020.22
2018-12-17T22:38:32.105Z,1020.25
2018-12-17T22:39:32.093Z,1020.25
2018-12-17T22:40:32.087Z,1020.28
2018-12-17T22:41:32.066Z,1020.35
2018-12-17T22:42:32.066Z,1020.31
2018-12-17T22:43:32.052Z,1020.27
2018-12-17T22:44:32.039Z,1020.26
2018-12-17T22:45:32.032Z,1020.26
2018-12-17T22:46:32.013Z,1020.29
2018-12-17T22:47:32.003Z,1020.27
2018-12-17T22:48:32.015Z,1020.32
2018-12-17T22:49:31.981Z,1020.29
2018-12-17T22:50:31.969Z,1020.34
2018-12-17T22:51:31.959Z,1020.33
2018-12-17T22:52:31.949Z,1020.31
2018-12-17T22:53:31.942Z,1020.30
2018-12-17T22:54:31.930Z,1020.30
2018-12-17T22:55:31.916Z,1020.29
2018-12-17T22:56:31.906Z,1020.26
2018-12-17T22:57:31.900Z,1020.27
2018-12-17T22:58:31.888Z,1020.30
2018-12-17T22:59:31.876Z,1020.23
2018-12-17T23:00:31.862Z,1020.24
2018-12-17T23:01:31.858Z,1020.25
2018-12-17T23:02:31.842Z,1020.26
2018-12-17T23:03:31.839Z,1020.23
2018-12-17T23:04:31.822Z,1020.21
2018-12-17T23:05:31.811Z,1020.21
2018-12-17T23:06:31.801Z,1020.19
2018-12-17T23:07:31.802Z,1020.22
2018-12-17T23:08:31.781Z,1020.21
2018-12-17T23:09:31.778Z,1020.21
2018-12-17T23:10:31.758Z,1020.25
2018-12-17T23:11:31.744Z,1020.23
2018-12-17T23:12:31.767Z,1020.23
2018-12-17T23:13:31.723Z,1020.21
2018-12-17T23:14:31.756Z,1020.22
2018-12-17T23:15:31.713Z,1020.22
2018-12-17T23:16:31.702Z,1020.22
2018-12-17T23:17:31.687Z,1020.19
